sensor_id;sensor_type;location;lat;lon;timestamp;P1;durP1;ratioP1;P2;durP2;ratioP2
17414;SDS011;8825;48.086;16.426;2023-02-13T00:01:10;20.80;;;16.97;;
17414;SDS011;8825;48.086;16.426;2023-02-13T00:03:38;18.70;;;16.43;;
17414;SDS011;8825;48.086;16.426;2023-02-13T00:06:05;24.37;;;16.93;;
17414;SDS011;8825;48.086;16.426;2023-02-13T00:08:34;22.57;;;17.13;;
17414;SDS011;8825;48.086;16.426;2023-02-13T00:11:01;20.03;;;17.23;;
17414;SDS011;8825;48.086;16.426;2023-02-13T00:13:29;19.33;;;17.03;;
17414;SDS011;8825;48.086;16.426;2023-02-13T00:15:57;21.40;;;18.07;;
17414;SDS011;8825;48.086;16.426;2023-02-13T00:18:26;18.57;;;16.40;;
17414;SDS011;8825;48.086;16.426;2023-02-13T00:23:42;20.57;;;17.80;;
17414;SDS011;8825;48.086;16.426;2023-02-13T00:28:56;21.07;;;17.40;;
17414;SDS011;8825;48.086;16.426;2023-02-13T00:31:24;20.07;;;17.70;;
17414;SDS011;8825;48.086;16.426;2023-02-13T00:33:51;22.57;;;18.83;;
17414;SDS011;8825;48.086;16.426;2023-02-13T00:36:19;21.67;;;16.93;;
17414;SDS011;8825;48.086;16.426;2023-02-13T00:38:48;22.53;;;18.30;;
17414;SDS011;8825;48.086;16.426;2023-02-13T00:41:16;21.07;;;17.67;;
17414;SDS011;8825;48.086;16.426;2023-02-13T00:43:44;20.53;;;17.33;;
17414;SDS011;8825;48.086;16.426;2023-02-13T00:46:12;19.33;;;17.03;;
17414;SDS011;8825;48.086;16.426;2023-02-13T00:48:41;22.30;;;18.00;;
17414;SDS011;8825;48.086;16.426;2023-02-13T00:51:09;24.43;;;17.87;;
17414;SDS011;8825;48.086;16.426;2023-02-13T00:53:37;18.73;;;16.13;;
17414;SDS011;8825;48.086;16.426;2023-02-13T00:56:05;21.17;;;17.80;;
17414;SDS011;8825;48.086;16.426;2023-02-13T00:58:33;22.43;;;18.13;;
17414;SDS011;8825;48.086;16.426;2023-02-13T01:01:00;20.97;;;17.47;;
17414;SDS011;8825;48.086;16.426;2023-02-13T01:03:28;18.00;;;15.67;;
17414;SDS011;8825;48.086;16.426;2023-02-13T01:05:56;21.03;;;16.30;;
17414;SDS011;8825;48.086;16.426;2023-02-13T01:08:24;19.03;;;15.73;;
17414;SDS011;8825;48.086;16.426;2023-02-13T01:10:53;22.03;;;17.67;;
17414;SDS011;8825;48.086;16.426;2023-02-13T01:13:21;21.33;;;18.03;;
17414;SDS011;8825;48.086;16.426;2023-02-13T01:15:49;20.83;;;18.53;;
17414;SDS011;8825;48.086;16.426;2023-02-13T01:18:18;17.93;;;15.97;;
17414;SDS011;8825;48.086;16.426;2023-02-13T01:20:54;20.93;;;17.60;;
17414;SDS011;8825;48.086;16.426;2023-02-13T01:23:22;18.37;;;16.23;;
17414;SDS011;8825;48.086;16.426;2023-02-13T01:25:49;22.30;;;17.20;;
17414;SDS011;8825;48.086;16.426;2023-02-13T01:28:17;21.20;;;17.87;;
17414;SDS011;8825;48.086;16.426;2023-02-13T01:30:44;18.63;;;16.43;;
17414;SDS011;8825;48.086;16.426;2023-02-13T01:36:04;19.57;;;16.60;;
17414;SDS011;8825;48.086;16.426;2023-02-13T01:38:33;17.80;;;15.90;;
17414;SDS011;8825;48.086;16.426;2023-02-13T01:41:01;20.53;;;16.83;;
17414;SDS011;8825;48.086;16.426;2023-02-13T01:43:45;19.73;;;17.63;;
17414;SDS011;8825;48.086;16.426;2023-02-13T01:46:42;18.77;;;15.93;;
17414;SDS011;8825;48.086;16.426;2023-02-13T01:49:14;19.07;;;16.00;;
17414;SDS011;8825;48.086;16.426;2023-02-13T01:51:44;18.60;;;16.17;;
17414;SDS011;8825;48.086;16.426;2023-02-13T01:54:16;19.12;;;16.85;;
17414;SDS011;8825;48.086;16.426;2023-02-13T01:56:47;19.23;;;16.90;;
17414;SDS011;8825;48.086;16.426;2023-02-13T01:59:17;18.37;;;15.70;;
17414;SDS011;8825;48.086;16.426;2023-02-13T02:01:46;19.70;;;16.77;;
17414;SDS011;8825;48.086;16.426;2023-02-13T02:04:20;23.27;;;19.40;;
17414;SDS011;8825;48.086;16.426;2023-02-13T02:07:02;23.67;;;19.40;;
17414;SDS011;8825;48.086;16.426;2023-02-13T02:09:33;25.77;;;20.37;;
17414;SDS011;8825;48.086;16.426;2023-02-13T02:12:24;22.32;;;19.27;;
17414;SDS011;8825;48.086;16.426;2023-02-13T02:15:05;20.10;;;17.98;;
17414;SDS011;8825;48.086;16.426;2023-02-13T02:17:33;23.45;;;19.23;;
17414;SDS011;8825;48.086;16.426;2023-02-13T02:25:54;19.00;;;16.53;;
17414;SDS011;8825;48.086;16.426;2023-02-13T02:34:30;21.30;;;15.98;;
17414;SDS011;8825;48.086;16.426;2023-02-13T02:40:04;22.30;;;18.05;;
17414;SDS011;8825;48.086;16.426;2023-02-13T02:51:23;20.17;;;17.60;;
17414;SDS011;8825;48.086;16.426;2023-02-13T02:54:02;21.10;;;17.70;;
17414;SDS011;8825;48.086;16.426;2023-02-13T02:56:51;22.22;;;17.48;;
17414;SDS011;8825;48.086;16.426;2023-02-13T02:59:21;18.73;;;16.30;;
17414;SDS011;8825;48.086;16.426;2023-02-13T03:02:09;18.67;;;15.98;;
17414;SDS011;8825;48.086;16.426;2023-02-13T03:04:57;20.33;;;16.43;;
17414;SDS011;8825;48.086;16.426;2023-02-13T03:07:45;20.52;;;16.35;;
17414;SDS011;8825;48.086;16.426;2023-02-13T03:10:14;20.62;;;16.32;;
17414;SDS011;8825;48.086;16.426;2023-02-13T03:13:05;17.95;;;15.65;;
17414;SDS011;8825;48.086;16.426;2023-02-13T03:15:47;19.20;;;16.90;;
17414;SDS011;8825;48.086;16.426;2023-02-13T03:18:37;21.53;;;16.93;;
17414;SDS011;8825;48.086;16.426;2023-02-13T03:21:34;19.50;;;15.47;;
17414;SDS011;8825;48.086;16.426;2023-02-13T03:29:47;20.35;;;15.70;;
17414;SDS011;8825;48.086;16.426;2023-02-13T03:32:44;19.02;;;15.53;;
17414;SDS011;8825;48.086;16.426;2023-02-13T03:38:02;22.63;;;18.37;;
17414;SDS011;8825;48.086;16.426;2023-02-13T03:40:44;22.50;;;19.20;;
17414;SDS011;8825;48.086;16.426;2023-02-13T03:43:31;21.55;;;17.17;;
17414;SDS011;8825;48.086;16.426;2023-02-13T03:46:19;19.80;;;16.30;;
17414;SDS011;8825;48.086;16.426;2023-02-13T03:48:48;18.62;;;16.62;;
17414;SDS011;8825;48.086;16.426;2023-02-13T03:57:12;16.50;;;14.30;;
17414;SDS011;8825;48.086;16.426;2023-02-13T04:00:00;18.30;;;15.50;;
17414;SDS011;8825;48.086;16.426;2023-02-13T04:02:31;18.37;;;15.43;;
17414;SDS011;8825;48.086;16.426;2023-02-13T04:05:03;16.80;;;14.63;;
17414;SDS011;8825;48.086;16.426;2023-02-13T04:07:34;18.75;;;14.95;;
17414;SDS011;8825;48.086;16.426;2023-02-13T04:10:03;19.07;;;14.93;;
17414;SDS011;8825;48.086;16.426;2023-02-13T04:15:33;17.47;;;14.13;;
17414;SDS011;8825;48.086;16.426;2023-02-13T04:18:22;15.60;;;13.00;;
17414;SDS011;8825;48.086;16.426;2023-02-13T04:20:54;13.60;;;11.68;;
17414;SDS011;8825;48.086;16.426;2023-02-13T04:23:22;15.80;;;12.85;;
17414;SDS011;8825;48.086;16.426;2023-02-13T04:25:50;13.50;;;12.10;;
17414;SDS011;8825;48.086;16.426;2023-02-13T04:28:20;14.55;;;12.98;;
17414;SDS011;8825;48.086;16.426;2023-02-13T04:30:47;17.27;;;14.78;;
17414;SDS011;8825;48.086;16.426;2023-02-13T04:33:17;16.90;;;13.50;;
17414;SDS011;8825;48.086;16.426;2023-02-13T04:35:45;16.02;;;14.33;;
17414;SDS011;8825;48.086;16.426;2023-02-13T04:40:59;17.50;;;14.45;;
17414;SDS011;8825;48.086;16.426;2023-02-13T04:43:27;14.87;;;12.35;;
17414;SDS011;8825;48.086;16.426;2023-02-13T04:45:54;15.35;;;12.73;;
17414;SDS011;8825;48.086;16.426;2023-02-13T04:48:22;15.85;;;12.65;;
17414;SDS011;8825;48.086;16.426;2023-02-13T04:50:49;17.12;;;13.62;;
17414;SDS011;8825;48.086;16.426;2023-02-13T04:53:17;17.48;;;13.18;;
17414;SDS011;8825;48.086;16.426;2023-02-13T04:55:44;21.45;;;14.10;;
17414;SDS011;8825;48.086;16.426;2023-02-13T04:58:12;17.42;;;14.00;;
17414;SDS011;8825;48.086;16.426;2023-02-13T05:00:40;17.10;;;14.25;;
17414;SDS011;8825;48.086;16.426;2023-02-13T05:03:08;15.75;;;13.95;;
17414;SDS011;8825;48.086;16.426;2023-02-13T05:05:38;18.48;;;13.95;;
17414;SDS011;8825;48.086;16.426;2023-02-13T05:08:06;15.65;;;13.43;;
17414;SDS011;8825;48.086;16.426;2023-02-13T05:10:34;15.05;;;13.13;;
17414;SDS011;8825;48.086;16.426;2023-02-13T05:13:02;15.10;;;12.63;;
17414;SDS011;8825;48.086;16.426;2023-02-13T05:15:30;13.35;;;11.12;;
17414;SDS011;8825;48.086;16.426;2023-02-13T05:17:57;15.25;;;11.88;;
17414;SDS011;8825;48.086;16.426;2023-02-13T05:20:26;11.57;;;10.38;;
17414;SDS011;8825;48.086;16.426;2023-02-13T05:22:54;12.63;;;10.75;;
17414;SDS011;8825;48.086;16.426;2023-02-13T05:25:39;14.85;;;11.30;;
17414;SDS011;8825;48.086;16.426;2023-02-13T05:28:07;12.40;;;11.10;;
17414;SDS011;8825;48.086;16.426;2023-02-13T05:30:37;15.30;;;12.45;;
17414;SDS011;8825;48.086;16.426;2023-02-13T05:33:04;15.25;;;12.58;;
17414;SDS011;8825;48.086;16.426;2023-02-13T05:35:32;15.50;;;11.43;;
17414;SDS011;8825;48.086;16.426;2023-02-13T05:37:59;12.60;;;11.18;;
17414;SDS011;8825;48.086;16.426;2023-02-13T05:40:27;12.13;;;10.43;;
17414;SDS011;8825;48.086;16.426;2023-02-13T05:42:55;14.13;;;11.80;;
17414;SDS011;8825;48.086;16.426;2023-02-13T05:45:22;15.85;;;11.83;;
17414;SDS011;8825;48.086;16.426;2023-02-13T05:47:50;12.40;;;10.20;;
17414;SDS011;8825;48.086;16.426;2023-02-13T05:50:17;11.73;;;9.95;;
17414;SDS011;8825;48.086;16.426;2023-02-13T05:52:45;12.00;;;10.10;;
17414;SDS011;8825;48.086;16.426;2023-02-13T05:55:12;13.08;;;10.28;;
17414;SDS011;8825;48.086;16.426;2023-02-13T05:57:40;12.63;;;10.98;;
17414;SDS011;8825;48.086;16.426;2023-02-13T06:00:08;12.50;;;10.83;;
17414;SDS011;8825;48.086;16.426;2023-02-13T06:05:26;13.03;;;10.97;;
17414;SDS011;8825;48.086;16.426;2023-02-13T06:07:54;14.50;;;11.87;;
17414;SDS011;8825;48.086;16.426;2023-02-13T06:10:21;12.40;;;11.05;;
17414;SDS011;8825;48.086;16.426;2023-02-13T06:12:49;12.07;;;10.23;;
17414;SDS011;8825;48.086;16.426;2023-02-13T06:15:16;11.40;;;10.20;;
17414;SDS011;8825;48.086;16.426;2023-02-13T06:17:44;11.57;;;10.10;;
17414;SDS011;8825;48.086;16.426;2023-02-13T06:20:11;12.60;;;9.87;;
17414;SDS011;8825;48.086;16.426;2023-02-13T06:22:39;12.35;;;10.20;;
17414;SDS011;8825;48.086;16.426;2023-02-13T06:25:07;12.07;;;10.13;;
17414;SDS011;8825;48.086;16.426;2023-02-13T06:27:34;12.83;;;10.80;;
17414;SDS011;8825;48.086;16.426;2023-02-13T06:30:02;13.67;;;11.17;;
17414;SDS011;8825;48.086;16.426;2023-02-13T06:32:29;13.07;;;11.10;;
17414;SDS011;8825;48.086;16.426;2023-02-13T06:34:57;15.97;;;12.83;;
17414;SDS011;8825;48.086;16.426;2023-02-13T06:37:24;17.03;;;13.03;;
17414;SDS011;8825;48.086;16.426;2023-02-13T06:42:40;17.40;;;12.43;;
17414;SDS011;8825;48.086;16.426;2023-02-13T06:45:09;23.80;;;16.40;;
17414;SDS011;8825;48.086;16.426;2023-02-13T06:47:41;22.50;;;16.43;;
17414;SDS011;8825;48.086;16.426;2023-02-13T06:50:10;21.77;;;15.17;;
17414;SDS011;8825;48.086;16.426;2023-02-13T06:52:38;19.37;;;13.80;;
17414;SDS011;8825;48.086;16.426;2023-02-13T06:55:07;17.13;;;13.57;;
17414;SDS011;8825;48.086;16.426;2023-02-13T06:57:35;18.33;;;13.57;;
17414;SDS011;8825;48.086;16.426;2023-02-13T07:00:03;17.63;;;13.27;;
17414;SDS011;8825;48.086;16.426;2023-02-13T07:02:31;15.23;;;13.50;;
17414;SDS011;8825;48.086;16.426;2023-02-13T07:04:59;14.43;;;12.13;;
17414;SDS011;8825;48.086;16.426;2023-02-13T07:07:31;13.83;;;11.77;;
17414;SDS011;8825;48.086;16.426;2023-02-13T07:10:01;14.00;;;12.47;;
17414;SDS011;8825;48.086;16.426;2023-02-13T07:12:31;16.77;;;12.50;;
17414;SDS011;8825;48.086;16.426;2023-02-13T07:14:59;15.10;;;12.63;;
17414;SDS011;8825;48.086;16.426;2023-02-13T07:17:27;12.13;;;10.83;;
17414;SDS011;8825;48.086;16.426;2023-02-13T07:19:54;12.87;;;10.57;;
17414;SDS011;8825;48.086;16.426;2023-02-13T07:22:22;13.03;;;11.43;;
17414;SDS011;8825;48.086;16.426;2023-02-13T07:24:50;14.53;;;11.80;;
17414;SDS011;8825;48.086;16.426;2023-02-13T07:27:17;13.57;;;12.03;;
17414;SDS011;8825;48.086;16.426;2023-02-13T07:29:45;15.00;;;12.57;;
17414;SDS011;8825;48.086;16.426;2023-02-13T07:32:12;17.77;;;11.80;;
17414;SDS011;8825;48.086;16.426;2023-02-13T07:37:27;11.97;;;10.40;;
17414;SDS011;8825;48.086;16.426;2023-02-13T07:39:55;10.87;;;9.60;;
17414;SDS011;8825;48.086;16.426;2023-02-13T07:42:23;13.00;;;10.03;;
17414;SDS011;8825;48.086;16.426;2023-02-13T07:44:51;11.77;;;9.80;;
17414;SDS011;8825;48.086;16.426;2023-02-13T07:47:18;10.93;;;9.83;;
17414;SDS011;8825;48.086;16.426;2023-02-13T07:49:46;10.93;;;9.77;;
17414;SDS011;8825;48.086;16.426;2023-02-13T07:52:13;10.17;;;9.07;;
17414;SDS011;8825;48.086;16.426;2023-02-13T07:54:41;10.07;;;8.93;;
17414;SDS011;8825;48.086;16.426;2023-02-13T07:57:10;11.50;;;10.07;;
17414;SDS011;8825;48.086;16.426;2023-02-13T07:59:37;10.97;;;9.73;;
17414;SDS011;8825;48.086;16.426;2023-02-13T08:02:05;10.33;;;8.53;;
17414;SDS011;8825;48.086;16.426;2023-02-13T08:10:12;9.30;;;8.27;;
17414;SDS011;8825;48.086;16.426;2023-02-13T08:12:58;9.47;;;7.90;;
17414;SDS011;8825;48.086;16.426;2023-02-13T08:15:46;8.80;;;7.73;;
17414;SDS011;8825;48.086;16.426;2023-02-13T08:18:14;11.40;;;7.90;;
17414;SDS011;8825;48.086;16.426;2023-02-13T08:20:41;9.60;;;8.00;;
17414;SDS011;8825;48.086;16.426;2023-02-13T08:23:09;9.23;;;7.37;;
17414;SDS011;8825;48.086;16.426;2023-02-13T08:25:37;9.00;;;8.10;;
17414;SDS011;8825;48.086;16.426;2023-02-13T08:28:05;10.17;;;8.03;;
17414;SDS011;8825;48.086;16.426;2023-02-13T08:30:33;9.03;;;8.13;;
17414;SDS011;8825;48.086;16.426;2023-02-13T08:33:00;9.80;;;8.10;;
17414;SDS011;8825;48.086;16.426;2023-02-13T08:35:27;8.87;;;7.43;;
17414;SDS011;8825;48.086;16.426;2023-02-13T08:37:56;10.57;;;8.20;;
17414;SDS011;8825;48.086;16.426;2023-02-13T08:40:31;9.33;;;7.47;;
17414;SDS011;8825;48.086;16.426;2023-02-13T08:43:19;8.70;;;7.80;;
17414;SDS011;8825;48.086;16.426;2023-02-13T08:45:47;10.40;;;7.37;;
17414;SDS011;8825;48.086;16.426;2023-02-13T08:48:15;10.73;;;7.43;;
17414;SDS011;8825;48.086;16.426;2023-02-13T08:50:42;9.33;;;7.47;;
17414;SDS011;8825;48.086;16.426;2023-02-13T08:53:10;7.90;;;7.10;;
17414;SDS011;8825;48.086;16.426;2023-02-13T08:55:37;8.47;;;7.07;;
17414;SDS011;8825;48.086;16.426;2023-02-13T08:58:05;8.43;;;6.47;;
17414;SDS011;8825;48.086;16.426;2023-02-13T09:00:32;9.30;;;7.00;;
17414;SDS011;8825;48.086;16.426;2023-02-13T09:03:00;7.90;;;6.80;;
17414;SDS011;8825;48.086;16.426;2023-02-13T09:05:29;8.97;;;7.80;;
17414;SDS011;8825;48.086;16.426;2023-02-13T09:08:00;9.03;;;7.63;;
17414;SDS011;8825;48.086;16.426;2023-02-13T09:10:29;9.80;;;7.97;;
17414;SDS011;8825;48.086;16.426;2023-02-13T09:12:57;9.03;;;8.07;;
17414;SDS011;8825;48.086;16.426;2023-02-13T09:15:26;9.27;;;7.87;;
17414;SDS011;8825;48.086;16.426;2023-02-13T09:17:53;9.67;;;8.20;;
17414;SDS011;8825;48.086;16.426;2023-02-13T09:20:21;11.37;;;8.60;;
17414;SDS011;8825;48.086;16.426;2023-02-13T09:22:49;10.20;;;8.27;;
17414;SDS011;8825;48.086;16.426;2023-02-13T09:25:16;9.53;;;7.90;;
17414;SDS011;8825;48.086;16.426;2023-02-13T09:27:45;9.13;;;7.67;;
17414;SDS011;8825;48.086;16.426;2023-02-13T09:30:13;8.10;;;7.27;;
17414;SDS011;8825;48.086;16.426;2023-02-13T09:32:42;8.93;;;7.90;;
17414;SDS011;8825;48.086;16.426;2023-02-13T09:35:10;9.43;;;7.13;;
17414;SDS011;8825;48.086;16.426;2023-02-13T09:37:39;7.87;;;6.90;;
17414;SDS011;8825;48.086;16.426;2023-02-13T09:40:24;9.93;;;7.20;;
17414;SDS011;8825;48.086;16.426;2023-02-13T09:43:09;9.13;;;7.43;;
17414;SDS011;8825;48.086;16.426;2023-02-13T09:45:25;8.97;;;7.50;;
17414;SDS011;8825;48.086;16.426;2023-02-13T09:47:53;10.17;;;7.13;;
17414;SDS011;8825;48.086;16.426;2023-02-13T09:50:22;10.23;;;7.37;;
17414;SDS011;8825;48.086;16.426;2023-02-13T09:52:52;8.37;;;7.47;;
17414;SDS011;8825;48.086;16.426;2023-02-13T09:55:28;8.70;;;7.80;;
17414;SDS011;8825;48.086;16.426;2023-02-13T09:57:55;8.70;;;7.20;;
17414;SDS011;8825;48.086;16.426;2023-02-13T10:00:28;8.63;;;7.77;;
17414;SDS011;8825;48.086;16.426;2023-02-13T10:11:12;9.10;;;6.97;;
17414;SDS011;8825;48.086;16.426;2023-02-13T10:19:33;7.90;;;7.10;;
17414;SDS011;8825;48.086;16.426;2023-02-13T10:22:06;7.47;;;6.70;;
17414;SDS011;8825;48.086;16.426;2023-02-13T10:24:46;8.40;;;6.87;;
17414;SDS011;8825;48.086;16.426;2023-02-13T10:27:16;9.77;;;7.33;;
17414;SDS011;8825;48.086;16.426;2023-02-13T10:29:43;9.17;;;7.03;;
17414;SDS011;8825;48.086;16.426;2023-02-13T10:32:35;10.27;;;7.00;;
17414;SDS011;8825;48.086;16.426;2023-02-13T10:35:07;8.37;;;6.77;;
17414;SDS011;8825;48.086;16.426;2023-02-13T10:37:35;8.50;;;5.70;;
17414;SDS011;8825;48.086;16.426;2023-02-13T10:40:04;6.93;;;6.23;;
17414;SDS011;8825;48.086;16.426;2023-02-13T10:42:46;7.27;;;5.67;;
17414;SDS011;8825;48.086;16.426;2023-02-13T10:45:28;6.03;;;5.43;;
17414;SDS011;8825;48.086;16.426;2023-02-13T10:48:16;8.00;;;6.17;;
17414;SDS011;8825;48.086;16.426;2023-02-13T10:50:55;6.57;;;5.87;;
17414;SDS011;8825;48.086;16.426;2023-02-13T10:59:02;5.73;;;5.13;;
17414;SDS011;8825;48.086;16.426;2023-02-13T11:01:47;5.17;;;4.60;;
17414;SDS011;8825;48.086;16.426;2023-02-13T11:04:29;5.73;;;5.13;;
17414;SDS011;8825;48.086;16.426;2023-02-13T11:09:46;5.47;;;4.97;;
17414;SDS011;8825;48.086;16.426;2023-02-13T11:15:03;6.97;;;5.23;;
17414;SDS011;8825;48.086;16.426;2023-02-13T11:17:27;5.50;;;4.67;;
17414;SDS011;8825;48.086;16.426;2023-02-13T11:20:04;5.67;;;5.07;;
17414;SDS011;8825;48.086;16.426;2023-02-13T11:22:29;5.97;;;4.73;;
17414;SDS011;8825;48.086;16.426;2023-02-13T11:25:06;5.60;;;5.00;;
17414;SDS011;8825;48.086;16.426;2023-02-13T11:27:36;5.07;;;4.57;;
17414;SDS011;8825;48.086;16.426;2023-02-13T11:30:06;5.23;;;4.33;;
17414;SDS011;8825;48.086;16.426;2023-02-13T11:33:26;4.03;;;3.60;;
17414;SDS011;8825;48.086;16.426;2023-02-13T11:35:44;4.40;;;4.00;;
17414;SDS011;8825;48.086;16.426;2023-02-13T11:38:19;4.17;;;3.77;;
17414;SDS011;8825;48.086;16.426;2023-02-13T11:40:47;5.60;;;3.97;;
17414;SDS011;8825;48.086;16.426;2023-02-13T11:43:26;8.87;;;4.77;;
17414;SDS011;8825;48.086;16.426;2023-02-13T11:46:52;5.37;;;4.27;;
17414;SDS011;8825;48.086;16.426;2023-02-13T11:48:32;6.27;;;4.83;;
17414;SDS011;8825;48.086;16.426;2023-02-13T11:51:01;6.17;;;4.50;;
17414;SDS011;8825;48.086;16.426;2023-02-13T11:53:35;5.83;;;4.30;;
17414;SDS011;8825;48.086;16.426;2023-02-13T11:56:06;5.37;;;4.27;;
17414;SDS011;8825;48.086;16.426;2023-02-13T11:58:39;5.30;;;4.80;;
17414;SDS011;8825;48.086;16.426;2023-02-13T12:06:29;4.60;;;4.20;;
17414;SDS011;8825;48.086;16.426;2023-02-13T12:08:59;4.60;;;4.20;;
17414;SDS011;8825;48.086;16.426;2023-02-13T12:11:38;5.23;;;4.73;;
17414;SDS011;8825;48.086;16.426;2023-02-13T12:14:08;5.23;;;4.73;;
17414;SDS011;8825;48.086;16.426;2023-02-13T12:19:28;6.00;;;4.87;;
17414;SDS011;8825;48.086;16.426;2023-02-13T12:21:59;5.47;;;4.47;;
17414;SDS011;8825;48.086;16.426;2023-02-13T12:27:29;4.30;;;3.90;;
17414;SDS011;8825;48.086;16.426;2023-02-13T12:35:38;5.07;;;4.57;;
17414;SDS011;8825;48.086;16.426;2023-02-13T12:44:30;5.60;;;4.10;;
17414;SDS011;8825;48.086;16.426;2023-02-13T12:47:18;4.83;;;4.20;;
17414;SDS011;8825;48.086;16.426;2023-02-13T12:58:13;5.50;;;4.73;;
17414;SDS011;8825;48.086;16.426;2023-02-13T13:00:58;5.50;;;4.90;;
17414;SDS011;8825;48.086;16.426;2023-02-13T13:03:44;4.73;;;4.27;;
17414;SDS011;8825;48.086;16.426;2023-02-13T13:14:49;5.67;;;4.97;;
17414;SDS011;8825;48.086;16.426;2023-02-13T13:17:52;6.83;;;5.00;;
17414;SDS011;8825;48.086;16.426;2023-02-13T13:20:34;7.40;;;5.00;;
17414;SDS011;8825;48.086;16.426;2023-02-13T13:23:12;4.73;;;4.33;;
17414;SDS011;8825;48.086;16.426;2023-02-13T13:28:52;5.20;;;4.70;;
17414;SDS011;8825;48.086;16.426;2023-02-13T13:31:18;6.07;;;4.63;;
17414;SDS011;8825;48.086;16.426;2023-02-13T13:33:49;4.40;;;3.97;;
17414;SDS011;8825;48.086;16.426;2023-02-13T13:39:05;5.93;;;4.80;;
17414;SDS011;8825;48.086;16.426;2023-02-13T14:07:42;4.40;;;3.93;;
17414;SDS011;8825;48.086;16.426;2023-02-13T14:13:09;5.97;;;4.47;;
17414;SDS011;8825;48.086;16.426;2023-02-13T14:18:29;4.43;;;4.03;;
17414;SDS011;8825;48.086;16.426;2023-02-13T14:21:02;4.90;;;4.40;;
17414;SDS011;8825;48.086;16.426;2023-02-13T14:23:37;5.10;;;4.60;;
17414;SDS011;8825;48.086;16.426;2023-02-13T14:34:05;4.10;;;3.70;;
17414;SDS011;8825;48.086;16.426;2023-02-13T14:36:33;3.90;;;3.50;;
17414;SDS011;8825;48.086;16.426;2023-02-13T14:42:26;3.87;;;3.57;;
17414;SDS011;8825;48.086;16.426;2023-02-13T14:44:55;4.40;;;4.00;;
17414;SDS011;8825;48.086;16.426;2023-02-13T14:47:28;4.77;;;4.27;;
17414;SDS011;8825;48.086;16.426;2023-02-13T14:49:59;4.07;;;3.73;;
17414;SDS011;8825;48.086;16.426;2023-02-13T14:52:33;4.80;;;3.93;;
17414;SDS011;8825;48.086;16.426;2023-02-13T14:55:07;4.67;;;4.03;;
17414;SDS011;8825;48.086;16.426;2023-02-13T14:57:45;4.60;;;3.97;;
17414;SDS011;8825;48.086;16.426;2023-02-13T15:06:27;4.47;;;3.30;;
17414;SDS011;8825;48.086;16.426;2023-02-13T15:08:58;4.87;;;3.50;;
17414;SDS011;8825;48.086;16.426;2023-02-13T15:11:38;3.77;;;3.40;;
17414;SDS011;8825;48.086;16.426;2023-02-13T15:16:44;4.10;;;3.73;;
17414;SDS011;8825;48.086;16.426;2023-02-13T15:19:18;4.30;;;3.50;;
17414;SDS011;8825;48.086;16.426;2023-02-13T15:22:02;4.07;;;3.47;;
17414;SDS011;8825;48.086;16.426;2023-02-13T15:24:26;4.10;;;3.80;;
17414;SDS011;8825;48.086;16.426;2023-02-13T15:27:04;4.17;;;3.40;;
17414;SDS011;8825;48.086;16.426;2023-02-13T15:32:25;4.27;;;3.97;;
17414;SDS011;8825;48.086;16.426;2023-02-13T15:37:55;4.33;;;3.60;;
17414;SDS011;8825;48.086;16.426;2023-02-13T15:40:27;3.70;;;3.40;;
17414;SDS011;8825;48.086;16.426;2023-02-13T15:44:00;3.50;;;3.20;;
17414;SDS011;8825;48.086;16.426;2023-02-13T15:45:51;3.53;;;3.23;;
17414;SDS011;8825;48.086;16.426;2023-02-13T15:48:18;4.40;;;3.40;;
17414;SDS011;8825;48.086;16.426;2023-02-13T15:50:46;3.63;;;3.27;;
17414;SDS011;8825;48.086;16.426;2023-02-13T15:53:15;4.10;;;3.70;;
17414;SDS011;8825;48.086;16.426;2023-02-13T15:55:54;4.03;;;3.63;;
17414;SDS011;8825;48.086;16.426;2023-02-13T15:58:24;4.27;;;3.53;;
17414;SDS011;8825;48.086;16.426;2023-02-13T16:00:55;3.67;;;3.23;;
17414;SDS011;8825;48.086;16.426;2023-02-13T16:03:24;3.90;;;3.60;;
17414;SDS011;8825;48.086;16.426;2023-02-13T16:05:53;4.60;;;3.63;;
17414;SDS011;8825;48.086;16.426;2023-02-13T16:13:53;4.73;;;3.60;;
17414;SDS011;8825;48.086;16.426;2023-02-13T16:16:49;4.00;;;3.60;;
17414;SDS011;8825;48.086;16.426;2023-02-13T16:19:23;5.33;;;3.97;;
17414;SDS011;8825;48.086;16.426;2023-02-13T16:24:49;3.87;;;3.47;;
17414;SDS011;8825;48.086;16.426;2023-02-13T16:27:20;4.40;;;4.00;;
17414;SDS011;8825;48.086;16.426;2023-02-13T16:29:54;4.03;;;3.67;;
17414;SDS011;8825;48.086;16.426;2023-02-13T16:32:25;4.07;;;3.53;;
17414;SDS011;8825;48.086;16.426;2023-02-13T16:34:53;4.10;;;3.70;;
17414;SDS011;8825;48.086;16.426;2023-02-13T16:37:31;4.10;;;3.70;;
17414;SDS011;8825;48.086;16.426;2023-02-13T16:40:45;4.03;;;3.60;;
17414;SDS011;8825;48.086;16.426;2023-02-13T16:42:46;3.80;;;3.40;;
17414;SDS011;8825;48.086;16.426;2023-02-13T16:45:35;3.93;;;3.53;;
17414;SDS011;8825;48.086;16.426;2023-02-13T16:47:57;3.80;;;3.50;;
17414;SDS011;8825;48.086;16.426;2023-02-13T16:50:26;3.70;;;3.30;;
17414;SDS011;8825;48.086;16.426;2023-02-13T16:52:58;4.50;;;3.77;;
17414;SDS011;8825;48.086;16.426;2023-02-13T16:55:26;4.07;;;3.67;;
17414;SDS011;8825;48.086;16.426;2023-02-13T16:58:02;4.03;;;3.63;;
17414;SDS011;8825;48.086;16.426;2023-02-13T17:00:31;4.20;;;3.90;;
17414;SDS011;8825;48.086;16.426;2023-02-13T17:02:59;3.93;;;3.63;;
17414;SDS011;8825;48.086;16.426;2023-02-13T17:05:27;5.13;;;3.90;;
17414;SDS011;8825;48.086;16.426;2023-02-13T17:07:55;4.57;;;3.77;;
17414;SDS011;8825;48.086;16.426;2023-02-13T17:10:28;5.40;;;4.03;;
17414;SDS011;8825;48.086;16.426;2023-02-13T17:12:59;5.07;;;3.60;;
17414;SDS011;8825;48.086;16.426;2023-02-13T17:15:29;5.20;;;4.00;;
17414;SDS011;8825;48.086;16.426;2023-02-13T17:17:58;4.37;;;3.87;;
17414;SDS011;8825;48.086;16.426;2023-02-13T17:20:27;4.77;;;4.23;;
17414;SDS011;8825;48.086;16.426;2023-02-13T17:22:57;4.50;;;4.10;;
17414;SDS011;8825;48.086;16.426;2023-02-13T17:25:31;5.00;;;4.40;;
17414;SDS011;8825;48.086;16.426;2023-02-13T17:27:58;4.53;;;4.13;;
17414;SDS011;8825;48.086;16.426;2023-02-13T17:30:29;5.17;;;4.67;;
17414;SDS011;8825;48.086;16.426;2023-02-13T17:35:49;5.77;;;5.20;;
17414;SDS011;8825;48.086;16.426;2023-02-13T17:41:04;5.90;;;5.30;;
17414;SDS011;8825;48.086;16.426;2023-02-13T17:43:34;6.83;;;5.30;;
17414;SDS011;8825;48.086;16.426;2023-02-13T17:46:01;6.20;;;4.93;;
17414;SDS011;8825;48.086;16.426;2023-02-13T17:48:29;5.83;;;5.23;;
17414;SDS011;8825;48.086;16.426;2023-02-13T17:50:56;5.37;;;4.50;;
17414;SDS011;8825;48.086;16.426;2023-02-13T17:53:25;5.33;;;4.83;;
17414;SDS011;8825;48.086;16.426;2023-02-13T17:55:57;6.30;;;4.83;;
17414;SDS011;8825;48.086;16.426;2023-02-13T17:58:25;6.10;;;5.37;;
17414;SDS011;8825;48.086;16.426;2023-02-13T18:00:52;4.77;;;4.27;;
17414;SDS011;8825;48.086;16.426;2023-02-13T18:03:20;5.53;;;4.80;;
17414;SDS011;8825;48.086;16.426;2023-02-13T18:05:47;6.83;;;5.93;;
17414;SDS011;8825;48.086;16.426;2023-02-13T18:08:15;6.50;;;5.50;;
17414;SDS011;8825;48.086;16.426;2023-02-13T18:10:44;6.00;;;5.40;;
17414;SDS011;8825;48.086;16.426;2023-02-13T18:13:11;8.33;;;6.13;;
17414;SDS011;8825;48.086;16.426;2023-02-13T18:18:26;7.07;;;5.53;;
17414;SDS011;8825;48.086;16.426;2023-02-13T18:20:54;6.13;;;5.57;;
17414;SDS011;8825;48.086;16.426;2023-02-13T18:23:22;6.60;;;5.47;;
17414;SDS011;8825;48.086;16.426;2023-02-13T18:25:50;5.90;;;5.30;;
17414;SDS011;8825;48.086;16.426;2023-02-13T18:28:17;6.30;;;5.70;;
17414;SDS011;8825;48.086;16.426;2023-02-13T18:30:45;6.47;;;5.87;;
17414;SDS011;8825;48.086;16.426;2023-02-13T18:33:12;6.10;;;5.27;;